createdAt,value
2022-12-27T00:04:00.600Z,0.00
2022-12-27T00:08:04.720Z,0.08
2022-12-27T00:12:09.386Z,0.20
2022-12-27T00:16:14.876Z,0.00
2022-12-27T00:20:17.757Z,0.00
2022-12-27T00:24:21.757Z,0.10
2022-12-27T00:28:24.466Z,0.32
2022-12-27T00:32:27.126Z,0.03
2022-12-27T00:36:32.034Z,0.15
2022-12-27T00:40:39.621Z,0.00
2022-12-27T00:44:43.283Z,0.10
2022-12-27T00:48:46.230Z,0.00
2022-12-27T00:52:48.998Z,0.00
2022-12-27T00:56:52.952Z,0.08
2022-12-27T01:00:55.644Z,0.00
2022-12-27T01:04:58.373Z,0.00
2022-12-27T01:09:02.451Z,0.10
2022-12-27T01:13:06.439Z,0.00
2022-12-27T01:17:09.145Z,0.00
2022-12-27T01:21:13.749Z,0.00
2022-12-27T01:25:16.421Z,0.20
2022-12-27T01:29:20.421Z,0.10
2022-12-27T01:33:23.119Z,0.10
2022-12-27T01:37:25.738Z,0.10
2022-12-27T01:41:50.786Z,0.20
2022-12-27T01:45:54.855Z,0.13
2022-12-27T01:50:04.329Z,0.00
2022-12-27T01:54:07.481Z,0.10
2022-12-27T01:58:14.346Z,0.00
2022-12-27T02:02:18.541Z,0.13
2022-12-27T02:06:23.082Z,0.00
2022-12-27T02:10:26.799Z,0.08
2022-12-27T02:14:32.003Z,0.10
2022-12-27T02:18:36.212Z,0.32
2022-12-27T02:23:22.839Z,0.10
2022-12-27T02:27:43.279Z,0.17
2022-12-27T02:31:57.047Z,0.05
2022-12-27T02:36:04.866Z,0.20
2022-12-27T02:40:28.521Z,0.00
2022-12-27T02:44:48.767Z,0.00
2022-12-27T02:49:16.024Z,0.20
2022-12-27T02:53:31.432Z,0.00
2022-12-27T02:57:43.289Z,0.22
2022-12-27T03:02:15.610Z,0.00
2022-12-27T03:06:43.764Z,0.20
2022-12-27T03:11:08.131Z,0.00
2022-12-27T03:15:41.844Z,0.00
2022-12-27T03:20:05.861Z,0.08
2022-12-27T03:24:29.180Z,0.00
2022-12-27T03:28:47.678Z,0.00
2022-12-27T03:33:13.086Z,0.00
2022-12-27T03:37:37.598Z,0.00
2022-12-27T03:42:04.730Z,0.00
2022-12-27T03:46:38.861Z,0.10
2022-12-27T03:50:47.452Z,0.03
2022-12-27T03:54:52.132Z,0.20
2022-12-27T03:58:58.269Z,0.00
2022-12-27T04:03:01.035Z,0.10
2022-12-27T04:07:04.390Z,0.25
2022-12-27T04:11:24.542Z,0.38
2022-12-27T04:15:46.057Z,0.05
2022-12-27T04:20:06.488Z,0.00
2022-12-27T04:24:26.429Z,0.00
2022-12-27T04:28:46.788Z,0.20
2022-12-27T04:33:08.742Z,0.32
2022-12-27T04:37:14.180Z,0.00
2022-12-27T04:41:34.201Z,0.20
2022-12-27T04:45:54.408Z,0.00
2022-12-27T04:50:16.221Z,0.00
2022-12-27T04:54:38.307Z,0.10
2022-12-27T04:59:00.967Z,0.08
2022-12-27T05:03:09.366Z,0.03
2022-12-27T05:07:33.041Z,0.00
2022-12-27T05:11:53.352Z,0.00
2022-12-27T05:15:56.067Z,0.10
2022-12-27T05:19:58.731Z,0.15
2022-12-27T05:24:20.279Z,0.00
2022-12-27T05:28:22.895Z,0.10
2022-12-27T05:32:25.451Z,0.10
2022-12-27T05:36:28.273Z,0.10
2022-12-27T05:40:32.538Z,0.15
2022-12-27T05:44:35.126Z,0.00
2022-12-27T05:48:38.180Z,0.10
2022-12-27T05:52:41.511Z,0.00
2022-12-27T05:56:45.539Z,0.20
2022-12-27T06:00:48.197Z,0.50
2022-12-27T06:04:50.786Z,0.00
2022-12-27T06:08:53.435Z,0.55
2022-12-27T06:12:57.373Z,0.60
2022-12-27T06:16:59.965Z,0.10
2022-12-27T06:21:03.761Z,0.08
2022-12-27T06:25:12.437Z,0.00
2022-12-27T06:29:18.434Z,0.35
2022-12-27T06:33:21.057Z,0.10
2022-12-27T06:37:23.675Z,0.05
2022-12-27T06:41:26.949Z,0.10
2022-12-27T06:45:30.988Z,0.00
2022-12-27T06:49:33.660Z,0.13
2022-12-27T06:53:37.280Z,0.13
2022-12-27T06:57:40.672Z,0.10
2022-12-27T07:01:44.715Z,0.03
2022-12-27T07:05:47.448Z,0.10
2022-12-27T07:09:50.026Z,0.32
2022-12-27T07:13:55.893Z,0.00
2022-12-27T07:18:00.688Z,0.00
2022-12-27T07:22:03.305Z,0.20
2022-12-27T07:26:07.784Z,0.00
2022-12-27T07:30:11.424Z,0.50
2022-12-27T07:34:15.516Z,0.03
2022-12-27T07:38:18.156Z,0.45
2022-12-27T07:42:20.740Z,0.00
2022-12-27T07:46:25.693Z,0.00
2022-12-27T07:50:29.649Z,0.32
2022-12-27T07:54:32.269Z,0.00
2022-12-27T07:58:38.631Z,0.00
2022-12-27T08:02:43.463Z,0.10
2022-12-27T08:06:47.896Z,0.30
2022-12-27T08:10:50.611Z,0.10
2022-12-27T08:14:53.174Z,1.15
2022-12-27T08:18:55.989Z,2.15
2022-12-27T08:23:00.166Z,4.07
2022-12-27T08:27:02.858Z,1.55
2022-12-27T08:31:08.460Z,0.55
2022-12-27T08:35:50.237Z,1.05
2022-12-27T08:39:36.765Z,0.80
2022-12-27T08:43:39.335Z,1.02
2022-12-27T08:47:42.004Z,0.57
2022-12-27T08:51:44.692Z,0.93
2022-12-27T08:55:49.100Z,0.52
2022-12-27T08:59:51.929Z,0.63
2022-12-27T09:03:54.666Z,1.20
2022-12-27T09:07:58.932Z,0.82
2022-12-27T09:12:05.725Z,1.40
2022-12-27T09:16:13.473Z,0.95
2022-12-27T09:20:16.183Z,1.10
2022-12-27T09:24:18.856Z,0.80
2022-12-27T09:28:22.829Z,0.77
2022-12-27T09:32:27.571Z,1.30
2022-12-27T09:36:31.116Z,0.70
2022-12-27T09:40:34.048Z,0.63
2022-12-27T09:44:47.224Z,0.60
2022-12-27T09:53:00.425Z,0.68
2022-12-27T09:57:20.934Z,0.77
2022-12-27T10:01:31.001Z,0.50
2022-12-27T10:05:37.587Z,0.80
2022-12-27T10:09:52.364Z,1.00
2022-12-27T10:13:59.849Z,0.60
2022-12-27T10:18:15.493Z,0.60
2022-12-27T10:22:30.621Z,0.75
2022-12-27T10:26:34.106Z,0.70
2022-12-27T10:30:36.893Z,1.15
2022-12-27T10:34:41.143Z,0.50
2022-12-27T10:38:43.952Z,0.55
2022-12-27T10:42:52.101Z,0.50
2022-12-27T10:46:56.875Z,0.65
2022-12-27T10:51:07.208Z,0.57
2022-12-27T10:55:34.051Z,0.70
2022-12-27T10:59:36.663Z,0.50
2022-12-27T11:03:39.349Z,0.45
2022-12-27T11:07:43.575Z,0.60
2022-12-27T11:11:46.238Z,1.02
2022-12-27T11:15:58.990Z,0.30
2022-12-27T11:24:16.707Z,0.50
2022-12-27T11:28:24.146Z,0.57
2022-12-27T11:32:26.978Z,0.75
2022-12-27T11:36:33.144Z,1.08
2022-12-27T11:40:37.729Z,0.40
2022-12-27T11:44:44.800Z,0.30
2022-12-27T11:48:55.697Z,0.63
2022-12-27T11:53:39.844Z,0.82
2022-12-27T12:02:27.104Z,0.90
2022-12-27T12:06:44.911Z,0.52
2022-12-27T12:10:54.105Z,0.57
2022-12-27T12:15:23.573Z,0.47
2022-12-27T12:19:36.834Z,0.38
2022-12-27T12:23:57.024Z,0.60
2022-12-27T12:28:56.476Z,0.68
2022-12-27T12:33:00.504Z,0.32
2022-12-27T12:37:26.153Z,0.43
2022-12-27T12:41:59.968Z,0.55
2022-12-27T12:46:11.267Z,0.40
2022-12-27T12:50:33.868Z,0.35
2022-12-27T12:54:56.653Z,0.57
2022-12-27T12:59:12.156Z,0.45
2022-12-27T13:03:45.943Z,0.88
2022-12-27T13:08:03.482Z,0.75
2022-12-27T13:12:13.475Z,0.40
2022-12-27T13:16:25.216Z,0.65
2022-12-27T13:21:01.237Z,1.15
2022-12-27T13:25:18.801Z,0.30
2022-12-27T13:29:44.451Z,0.63
2022-12-27T13:33:59.169Z,0.63
2022-12-27T13:38:13.505Z,0.75
2022-12-27T13:43:00.044Z,0.43
2022-12-27T13:47:42.200Z,0.95
2022-12-27T13:51:46.532Z,0.63
2022-12-27T13:55:56.566Z,0.68
2022-12-27T14:00:10.138Z,0.52
2022-12-27T14:04:59.025Z,0.85
2022-12-27T14:09:41.139Z,0.57
2022-12-27T14:13:45.510Z,0.38
2022-12-27T14:17:58.719Z,0.40
2022-12-27T14:22:53.845Z,0.68
2022-12-27T14:27:40.134Z,0.90
2022-12-27T14:32:17.085Z,0.52
2022-12-27T14:36:36.249Z,1.05
2022-12-27T14:41:01.183Z,1.13
2022-12-27T14:45:38.989Z,0.57
2022-12-27T14:50:21.210Z,0.38
2022-12-27T14:54:55.299Z,1.02
2022-12-27T14:59:11.827Z,1.42
2022-12-27T15:03:24.366Z,0.80
2022-12-27T15:07:57.851Z,0.85
2022-12-27T15:12:15.366Z,0.65
2022-12-27T15:16:30.838Z,0.80
2022-12-27T15:20:57.114Z,0.60
2022-12-27T15:25:08.424Z,1.95
2022-12-27T15:29:28.568Z,0.80
2022-12-27T15:33:39.666Z,1.40
2022-12-27T15:37:53.931Z,0.90
2022-12-27T15:42:05.241Z,2.00
2022-12-27T15:46:23.742Z,1.05
2022-12-27T15:50:56.724Z,1.05
2022-12-27T15:55:19.202Z,2.20
2022-12-27T15:59:42.799Z,1.38
2022-12-27T16:03:48.343Z,1.38
2022-12-27T16:07:52.654Z,1.17
2022-12-27T16:12:05.762Z,0.88
2022-12-27T16:16:11.917Z,1.38
2022-12-27T16:20:18.460Z,1.27
2022-12-27T16:24:25.373Z,1.30
2022-12-27T16:28:30.169Z,1.25
2022-12-27T16:32:32.928Z,1.10
2022-12-27T16:36:39.270Z,1.40
2022-12-27T16:40:49.762Z,1.38
2022-12-27T16:44:58.934Z,1.08
2022-12-27T16:49:32.031Z,1.33
2022-12-27T16:54:03.013Z,1.13
2022-12-27T16:58:24.601Z,1.35
2022-12-27T17:02:40.574Z,0.98
2022-12-27T17:06:55.220Z,1.15
2022-12-27T17:11:04.698Z,0.82
2022-12-27T17:15:13.680Z,2.50
2022-12-27T17:19:20.076Z,2.53
2022-12-27T17:23:24.679Z,2.40
2022-12-27T17:27:42.686Z,2.55
2022-12-27T17:31:55.268Z,2.38
2022-12-27T17:36:15.541Z,5.57
2022-12-27T17:40:30.123Z,5.28
2022-12-27T17:44:49.524Z,3.42
2022-12-27T17:53:22.228Z,3.88
2022-12-27T17:57:42.585Z,4.75
2022-12-27T18:01:50.192Z,3.67
2022-12-27T18:05:53.297Z,3.20
2022-12-27T18:09:59.260Z,3.92
2022-12-27T18:14:02.348Z,3.05
2022-12-27T18:18:09.361Z,2.35
2022-12-27T18:22:20.340Z,2.70
2022-12-27T18:26:32.354Z,1.73
2022-12-27T18:30:39.867Z,2.95
2022-12-27T18:34:49.297Z,2.55
2022-12-27T18:38:56.852Z,3.67
2022-12-27T18:42:59.645Z,3.97
2022-12-27T18:47:04.403Z,4.75
2022-12-27T18:51:09.272Z,3.15
2022-12-27T18:55:19.175Z,2.38
2022-12-27T18:59:26.131Z,3.35
2022-12-27T19:03:31.800Z,2.95
2022-12-27T19:07:39.357Z,2.20
2022-12-27T19:11:43.077Z,3.08
2022-12-27T19:15:46.221Z,2.65
2022-12-27T19:19:51.819Z,2.08
2022-12-27T19:23:56.044Z,3.97
2022-12-27T19:28:01.112Z,2.20
2022-12-27T19:32:07.374Z,1.85
2022-12-27T19:36:10.804Z,2.22
2022-12-27T19:40:16.808Z,2.30
2022-12-27T19:44:19.715Z,3.95
2022-12-27T19:48:22.699Z,2.80
2022-12-27T19:52:27.403Z,1.67
2022-12-27T19:56:31.573Z,3.22
2022-12-27T20:00:34.272Z,2.10
2022-12-27T20:04:36.995Z,3.95
2022-12-27T20:08:44.248Z,3.85
2022-12-27T20:12:48.186Z,5.20
2022-12-27T20:16:50.869Z,4.25
2022-12-27T20:20:54.096Z,5.05
2022-12-27T20:24:56.732Z,5.03
2022-12-27T20:29:00.958Z,6.22
2022-12-27T20:33:04.238Z,5.65
2022-12-27T20:37:07.229Z,3.67
2022-12-27T20:41:11.966Z,4.40
2022-12-27T20:45:16.191Z,3.63
2022-12-27T20:49:19.223Z,4.55
2022-12-27T20:53:27.764Z,4.10
2022-12-27T20:57:30.455Z,3.92
2022-12-27T21:01:34.607Z,2.50
2022-12-27T21:05:38.013Z,2.85
2022-12-27T21:09:40.638Z,3.55
2022-12-27T21:13:44.641Z,3.28
2022-12-27T21:17:48.561Z,3.03
2022-12-27T21:21:51.160Z,3.30
2022-12-27T21:25:53.783Z,2.08
2022-12-27T21:29:56.427Z,2.15
2022-12-27T21:34:00.941Z,2.92
2022-12-27T21:38:03.550Z,2.50
2022-12-27T21:42:07.183Z,2.20
2022-12-27T21:46:12.563Z,3.22
2022-12-27T21:50:16.653Z,2.47
2022-12-27T21:54:19.369Z,2.15
2022-12-27T21:58:22.161Z,2.50
2022-12-27T22:02:25.005Z,3.17
2022-12-27T22:06:31.489Z,2.47
2022-12-27T22:10:34.158Z,2.33
2022-12-27T22:14:37.214Z,2.90
2022-12-27T22:18:41.470Z,2.90
2022-12-27T22:22:45.503Z,2.08
2022-12-27T22:26:49.929Z,1.58
2022-12-27T22:30:52.844Z,2.28
2022-12-27T22:34:55.459Z,2.33
2022-12-27T22:39:00.599Z,2.53
2022-12-27T22:43:03.212Z,2.42
2022-12-27T22:47:25.904Z,1.27
2022-12-27T22:51:31.758Z,1.90
2022-12-27T22:55:35.725Z,1.73
2022-12-27T22:59:38.322Z,2.33
2022-12-27T23:03:40.988Z,2.45
2022-12-27T23:08:06.237Z,2.95
2022-12-27T23:12:07.813Z,3.55
2022-12-27T23:16:10.600Z,1.50
2022-12-27T23:20:13.464Z,2.63
2022-12-27T23:24:16.392Z,1.95
2022-12-27T23:28:20.441Z,2.40
2022-12-27T23:32:23.082Z,2.78
2022-12-27T23:36:25.736Z,3.97
2022-12-27T23:40:28.515Z,2.17
2022-12-27T23:44:34.553Z,2.03
2022-12-27T23:48:37.916Z,1.70
2022-12-27T23:52:40.544Z,2.45
2022-12-27T23:56:43.134Z,2.67
